Observations for ROME URBE IT-AFB, Italy (LIRU)

LIRU 241750Z 33006KT 9999 BKN030 25/15 Q1015
LIRU 241650Z 26006KT 9999 SCT030 27/18 Q1014
LIRU 241550Z 25006KT 9999 FEW035 28/19 Q1013
LIRU 241450Z 23009KT 9999 FEW030 29/19 Q1013
LIRU 241350Z 24006KT 9999 FEW035 29/19 Q1013
LIRU 241250Z VRB03KT 9999 SCT035 29/19 Q1014
LIRU 241150Z 22008KT 9999 BKN030 29/20 Q1014
LIRU 241050Z VRB03KT 9999 SCT020 BKN040 28/19 Q1015 15  
LIRU 240950Z 15005KT 9999 SCT025 SCT045 26/20 Q1015 
LIRU 240850Z VRB02KT 9999 FEW020 SCT035 26/19 Q1015 
LIRU 240750Z VRB02KT 9999 BKN020 24/18 Q1015
LIRU 240650Z VRB02KT 9999 BKN020 23/19 Q1014
LIRU 240600Z VRB02KT 9999 BKN020 22/18 Q1014